Time;durP1;ratioP1;P1;durP2;ratioP2;P2;SDS_P1;SDS_P2;PMS_P1;PMS_P2;Temp;Humidity;BMP_temperature;BMP_pressure;BME280_temperature;BME280_humidity;BME280_pressure;Samples;Min_cycle;Max_cycle;Signal;HPM_P1;HPM_P2
2023/02/08 00:00:15;;;;;;;82.30;34.55;;;;;;;-5.22;76.73;102686.09;5051536;28;20025;-69
2023/02/08 00:02:40;;;;;;;83.68;36.45;;;;;;;-5.27;77.15;102666.81;5050451;28;20468;-68
2023/02/08 00:05:06;;;;;;;86.95;37.20;;;;;;;-5.19;77.29;102687.00;5045604;28;20103;-67
2023/02/08 00:07:31;;;;;;;82.25;36.47;;;;;;;-5.22;78.10;102680.88;5050705;28;20575;-68
2023/02/08 00:09:57;;;;;;;86.00;36.90;;;;;;;-5.16;78.30;102694.03;5044250;28;20053;-68
2023/02/08 00:12:22;;;;;;;86.38;35.83;;;;;;;-5.24;78.21;102667.75;5048241;28;20055;-68
2023/02/08 00:14:48;;;;;;;79.20;35.38;;;;;;;-5.10;78.47;102686.22;5050349;28;20040;-69
2023/02/08 00:17:13;;;;;;;87.32;36.47;;;;;;;-5.17;79.01;102679.16;5046109;28;20087;-69
2023/02/08 00:19:39;;;;;;;81.65;36.13;;;;;;;-5.09;79.46;102680.16;5049799;28;20021;-68
2023/02/08 00:22:05;;;;;;;88.10;37.22;;;;;;;-5.02;79.94;102695.09;5050852;28;20394;-68
2023/02/08 00:24:30;;;;;;;87.53;37.13;;;;;;;-4.97;79.92;102693.38;5056080;28;20115;-69
2023/02/08 00:26:55;;;;;;;82.55;36.13;;;;;;;-4.92;80.32;102699.56;5048085;28;20478;-69
2023/02/08 00:29:21;;;;;;;79.30;37.60;;;;;;;-4.90;80.91;102690.88;5048886;28;20033;-68
2023/02/08 00:31:46;;;;;;;95.53;39.47;;;;;;;-4.90;80.96;102684.78;5050667;28;20032;-68
2023/02/08 00:34:12;;;;;;;86.15;38.40;;;;;;;-4.85;80.85;102685.69;5048413;28;20099;-68
2023/02/08 00:36:37;;;;;;;92.38;38.55;;;;;;;-4.80;80.99;102690.13;5046324;28;20044;-69
2023/02/08 00:39:03;;;;;;;87.93;38.83;;;;;;;-4.71;80.60;102705.06;5045504;28;20033;-69
2023/02/08 00:41:28;;;;;;;90.03;39.83;;;;;;;-4.78;81.18;102688.41;5045869;28;20033;-69
2023/02/08 00:43:53;;;;;;;91.10;38.70;;;;;;;-4.60;80.92;102710.44;5048389;28;20430;-69
2023/02/08 00:46:19;;;;;;;84.88;36.03;;;;;;;-4.56;80.79;102713.09;5050778;28;20056;-69
2023/02/08 00:48:45;;;;;;;84.20;36.80;;;;;;;-4.53;81.34;102713.16;5039465;28;20825;-69
2023/02/08 00:51:14;;;;;;;79.47;35.17;;;;;;;-4.43;81.67;102715.00;5039145;28;20183;-69
2023/02/08 00:53:43;;;;;;;82.13;37.05;;;;;;;-4.54;81.80;102682.59;5063863;28;20616;-69
2023/02/08 00:56:10;;;;;;;83.18;35.53;;;;;;;-4.32;81.89;102707.28;5041307;28;20119;-69
2023/02/08 00:58:36;;;;;;;78.00;34.17;;;;;;;-4.25;82.08;102707.38;5047683;28;20029;-69
2023/02/08 01:01:02;;;;;;;79.00;34.95;;;;;;;-4.20;81.75;102708.28;5047158;28;20025;-68
2023/02/08 01:03:28;;;;;;;66.90;33.05;;;;;;;-4.11;82.17;102708.38;5047596;28;20045;-69
2023/02/08 01:05:59;;;;;;;76.18;34.92;;;;;;;-4.11;82.10;102700.50;5041099;28;20036;-69
2023/02/08 01:08:24;;;;;;;77.90;34.65;;;;;;;-4.01;81.69;102702.34;5047034;28;20112;-69
2023/02/08 01:10:50;;;;;;;75.97;33.55;;;;;;;-3.98;81.28;102702.38;5039893;28;20093;-69
2023/02/08 01:13:15;;;;;;;78.75;35.67;;;;;;;-3.93;81.79;102692.84;5047617;28;20025;-68
2023/02/08 01:15:41;;;;;;;79.35;35.40;;;;;;;-3.87;81.64;102697.25;5050666;28;20533;-68
2023/02/08 01:18:07;;;;;;;74.22;34.42;;;;;;;-3.76;81.98;102701.72;5044915;28;20071;-69
2023/02/08 01:20:35;;;;;;;81.65;36.47;;;;;;;-3.72;81.81;102695.63;5044142;28;20059;-68
2023/02/08 01:23:01;;;;;;;76.63;35.25;;;;;;;-3.62;81.97;102701.81;5049754;28;20411;-67
2023/02/08 01:25:27;;;;;;;80.55;36.67;;;;;;;-3.62;82.18;102686.97;5046737;28;20028;-68
2023/02/08 01:27:54;;;;;;;80.32;35.63;;;;;;;-3.51;81.79;102695.78;5037340;28;20034;-68
2023/02/08 01:30:20;;;;;;;79.95;36.75;;;;;;;-3.46;81.90;102703.66;5048337;28;20090;-69
2023/02/08 01:32:45;;;;;;;83.75;37.75;;;;;;;-3.44;81.56;102709.81;5048241;28;20395;-69
2023/02/08 01:35:10;;;;;;;83.63;35.28;;;;;;;-3.50;81.97;102683.53;5041800;28;20036;-69
2023/02/08 01:37:40;;;;;;;81.13;35.10;;;;;;;-3.42;81.99;102693.22;5038230;28;20040;-70
2023/02/08 01:40:06;;;;;;;78.50;36.42;;;;;;;-3.42;82.05;102681.88;5042493;28;20049;-68
2023/02/08 01:42:31;;;;;;;81.82;35.55;;;;;;;-3.34;82.19;102690.66;5040663;28;20088;-68
2023/02/08 01:45:15;;;;;;;83.68;37.97;;;;;;;-3.25;82.32;102703.84;5036666;28;20168;-68
2023/02/08 01:47:47;;;;;;;78.60;34.72;;;;;;;-3.30;81.94;102698.56;5044475;28;20032;-68
2023/02/08 01:50:15;;;;;;;74.40;34.42;;;;;;;-3.27;82.19;102690.69;5036262;28;20041;-69
2023/02/08 01:52:44;;;;;;;68.25;32.17;;;;;;;-3.16;82.72;102706.53;5045704;28;20033;-68
2023/02/08 01:55:34;;;;;;;71.20;33.15;;;;;;;-3.08;82.22;102705.69;5044399;28;20033;-69
2023/02/08 01:58:06;;;;;;;67.07;33.38;;;;;;;-3.11;82.79;102702.16;5039354;28;20037;-69
2023/02/08 02:00:32;;;;;;;66.03;31.77;;;;;;;-3.04;82.71;102715.34;5043730;28;20017;-68
2023/02/08 02:03:00;;;;;;;74.10;34.78;;;;;;;-3.01;82.33;102715.34;5046502;28;20036;-69
2023/02/08 02:05:31;;;;;;;65.15;32.67;;;;;;;-2.96;82.55;102702.25;5041288;28;20494;-68
2023/02/08 02:07:58;;;;;;;73.50;33.08;;;;;;;-2.95;82.76;102707.50;5045639;28;20032;-69
2023/02/08 02:10:31;;;;;;;71.32;33.28;;;;;;;-2.87;82.75;102718.06;5034636;28;20051;-68
2023/02/08 02:13:04;;;;;;;70.47;32.40;;;;;;;-2.88;83.46;102716.28;5045036;28;20032;-68
2023/02/08 02:15:30;;;;;;;;;;;;;;;-2.82;82.50;102721.56;5045468;28;20028;-69
2023/02/08 02:17:56;;;;;;;63.33;31.25;;;;;;;-2.81;83.04;102724.22;5043933;28;20335;-69
2023/02/08 02:20:52;;;;;;;60.10;29.65;;;;;;;-2.76;82.55;102713.72;5049400;28;20108;-69
2023/02/08 02:23:52;;;;;;;61.17;30.10;;;;;;;-2.72;83.09;102715.50;5045145;28;20096;-68
2023/02/08 02:26:33;;;;;;;66.78;30.90;;;;;;;-2.72;82.68;102705.88;5044552;28;20039;-68
2023/02/08 02:29:21;;;;;;;63.30;30.48;;;;;;;-2.71;82.54;102705.00;5046094;28;20086;-69
2023/02/08 02:31:49;;;;;;;61.80;29.58;;;;;;;-2.64;82.81;102730.41;5047010;28;20040;-68
2023/02/08 02:34:42;;;;;;;71.82;32.70;;;;;;;-2.59;82.13;102720.81;5046375;28;20037;-69
2023/02/08 02:37:33;;;;;;;77.50;33.60;;;;;;;-2.57;82.71;102721.72;5035497;28;20036;-69
2023/02/08 02:40:17;;;;;;;74.45;33.08;;;;;;;-2.54;82.29;102716.44;5037301;28;20476;-69
2023/02/08 02:46:22;;;;;;;67.47;32.28;;;;;;;-2.48;82.17;102720.84;5042341;28;20132;-69
2023/02/08 02:48:57;;;;;;;69.80;31.85;;;;;;;-2.46;82.13;102722.63;5046933;28;20029;-69
2023/02/08 02:51:27;;;;;;;62.28;30.27;;;;;;;-2.42;82.00;102726.09;5036854;28;20047;-68
2023/02/08 02:53:59;;;;;;;67.75;32.03;;;;;;;-2.45;82.26;102724.34;5047993;28;20507;-69
2023/02/08 02:56:38;;;;;;;63.95;28.05;;;;;;;-2.44;81.96;102718.25;5046765;28;20560;-69
2023/02/08 02:59:07;;;;;;;59.67;29.13;;;;;;;-2.39;82.33;102729.63;5044708;28;20029;-69
2023/02/08 03:01:33;;;;;;;60.70;28.75;;;;;;;-2.38;82.51;102722.63;5048695;28;20033;-69
2023/02/08 03:03:58;;;;;;;57.92;28.33;;;;;;;-2.42;81.89;102711.22;5045838;28;20036;-69
2023/02/08 03:06:34;;;;;;;57.83;28.75;;;;;;;-2.36;82.10;102724.41;5042527;28;20029;-68
2023/02/08 03:09:18;;;;;;;53.45;27.50;;;;;;;-2.33;81.88;102730.53;5043434;28;20075;-68
2023/02/08 03:11:59;;;;;;;53.95;27.15;;;;;;;-2.30;81.78;102730.56;5045576;28;20033;-69
2023/02/08 03:14:58;;;;;;;52.70;27.00;;;;;;;-2.20;81.48;102748.09;5043298;28;20037;-69
2023/02/08 03:17:38;;;;;;;57.10;28.50;;;;;;;-2.18;81.19;102741.09;5042330;28;20044;-69
2023/02/08 03:20:09;;;;;;;69.88;30.08;;;;;;;-2.14;81.60;102753.34;5044792;28;20040;-69
2023/02/08 03:22:34;;;;;;;76.28;32.13;;;;;;;-2.14;81.38;102748.09;5034306;28;20079;-69
2023/02/08 03:25:08;;;;;;;73.35;31.27;;;;;;;-2.15;81.73;102751.59;5044408;28;20040;-69
2023/02/08 03:27:43;;;;;;;73.28;29.98;;;;;;;-2.16;81.93;102753.34;5040695;28;20162;-69
2023/02/08 03:30:21;;;;;;;74.88;29.83;;;;;;;-2.13;82.23;102752.50;5040155;28;20065;-69
2023/02/08 03:32:54;;;;;;;78.63;32.75;;;;;;;-2.08;82.07;102766.50;5044643;28;20032;-69
2023/02/08 03:35:26;;;;;;;74.88;30.73;;;;;;;-2.07;81.93;102763.03;5045596;28;20082;-69
2023/02/08 03:38:13;;;;;;;67.78;28.02;;;;;;;-1.95;81.66;102752.53;5043183;28;20033;-68
2023/02/08 03:40:46;;;;;;;54.40;24.67;;;;;;;-1.99;81.36;102742.88;5052518;28;20039;-68
2023/02/08 03:43:29;;;;;;;49.80;23.93;;;;;;;-1.93;81.57;102756.94;5054943;28;20025;-68
2023/02/08 03:46:03;;;;;;;52.53;23.27;;;;;;;-1.95;81.25;102750.78;5052113;28;20641;-67
2023/02/08 03:48:30;;;;;;;53.33;23.92;;;;;;;-1.94;81.90;102752.53;5054909;28;21164;-68
2023/02/08 03:50:57;;;;;;;56.15;25.05;;;;;;;-1.91;81.62;102762.19;5042502;28;20052;-69
2023/02/08 03:53:24;;;;;;;53.75;24.52;;;;;;;-2.02;81.24;102743.75;5050053;28;20033;-68
2023/02/08 03:55:55;;;;;;;55.20;25.65;;;;;;;-1.93;81.88;102749.03;5043649;28;20151;-68
2023/02/08 03:58:25;;;;;;;52.45;25.17;;;;;;;-1.90;82.15;102758.69;5076960;28;20448;-68
2023/02/08 04:01:01;;;;;;;49.00;23.30;;;;;;;-1.95;82.42;102756.03;5047997;28;20098;-69
2023/02/08 04:03:29;;;;;;;46.47;22.40;;;;;;;-1.91;82.16;102760.41;5050816;28;20464;-69
2023/02/08 04:05:55;;;;;;;47.38;22.42;;;;;;;-1.89;82.22;102763.06;5049326;28;20029;-69
2023/02/08 04:08:20;;;;;;;43.10;20.80;;;;;;;-1.91;82.17;102770.09;5044517;28;20506;-69
2023/02/08 04:10:47;;;;;;;46.83;21.40;;;;;;;-1.99;82.63;102745.50;5047137;28;20025;-69
2023/02/08 04:13:12;;;;;;;46.05;22.67;;;;;;;-1.90;82.13;102750.78;5050683;28;20043;-68
2023/02/08 04:15:38;;;;;;;45.50;21.33;;;;;;;-1.89;82.33;102753.44;5049250;28;20016;-69
2023/02/08 04:18:04;;;;;;;42.40;20.42;;;;;;;-1.85;82.33;102762.19;5051824;28;20029;-68
2023/02/08 04:20:29;;;;;;;40.10;20.17;;;;;;;-1.89;82.30;102758.69;5043446;28;20099;-68
2023/02/08 04:22:54;;;;;;;40.92;21.08;;;;;;;-1.84;82.83;102774.47;5044619;28;20036;-69
2023/02/08 04:25:20;;;;;;;43.33;20.75;;;;;;;-1.86;82.66;102763.06;5038674;28;20033;-68
2023/02/08 04:27:45;;;;;;;43.17;20.58;;;;;;;-1.94;82.21;102756.94;5046456;28;20121;-69
2023/02/08 04:30:12;;;;;;;42.47;19.67;;;;;;;-1.90;81.83;102777.09;5050637;28;20078;-68
2023/02/08 04:32:37;;;;;;;38.13;19.98;;;;;;;-1.92;81.60;102782.34;5050836;28;20029;-69
2023/02/08 04:35:03;;;;;;;41.83;20.52;;;;;;;-1.97;82.29;102767.44;5045246;28;20064;-69
2023/02/08 04:37:29;;;;;;;41.20;20.48;;;;;;;-1.85;82.31;102776.22;5047813;28;20033;-68
2023/02/08 04:39:54;;;;;;;40.60;19.60;;;;;;;-1.84;82.57;102780.59;5050667;28;20534;-68
2023/02/08 04:42:20;;;;;;;38.80;18.20;;;;;;;-1.94;82.28;102772.72;5045937;28;20033;-70
2023/02/08 04:44:45;;;;;;;36.55;18.85;;;;;;;-1.93;82.21;102777.09;5044154;28;20029;-68
2023/02/08 04:47:10;;;;;;;39.25;18.50;;;;;;;-1.96;81.57;102783.22;5048263;28;20044;-68
2023/02/08 04:49:36;;;;;;;39.83;20.10;;;;;;;-2.08;81.41;102767.41;5036104;28;20045;-69
2023/02/08 04:52:02;;;;;;;41.75;19.58;;;;;;;-2.06;80.90;102783.19;5046548;28;20109;-68
2023/02/08 04:54:27;;;;;;;36.95;18.35;;;;;;;-2.11;81.27;102784.91;5044719;28;20083;-67
2023/02/08 04:56:53;;;;;;;36.75;18.67;;;;;;;-2.17;80.63;102784.91;5045791;28;20044;-67
2023/02/08 04:59:18;;;;;;;38.00;18.42;;;;;;;-2.25;80.75;102776.09;5048534;28;20016;-67
2023/02/08 05:01:48;;;;;;;39.42;19.40;;;;;;;-2.35;80.09;102764.69;5043461;28;20088;-70
2023/02/08 05:04:14;;;;;;;40.22;18.58;;;;;;;-2.43;80.55;102762.03;5054156;28;20041;-69
2023/02/08 05:06:39;;;;;;;36.70;18.52;;;;;;;-2.43;80.41;102784.78;5041644;28;20033;-68
2023/02/08 05:09:08;;;;;;;37.05;18.10;;;;;;;-2.53;80.41;102783.88;5055583;28;20503;-68
2023/02/08 05:11:34;;;;;;;35.55;18.08;;;;;;;-2.56;80.60;102789.13;5048386;28;20108;-68
2023/02/08 05:14:00;;;;;;;37.80;18.48;;;;;;;-2.69;80.40;102778.53;5050259;28;20120;-68
2023/02/08 05:16:26;;;;;;;38.35;18.23;;;;;;;-2.71;80.49;102793.41;5047459;28;20448;-68
2023/02/08 05:18:51;;;;;;;39.10;19.80;;;;;;;-2.78;80.76;102800.38;5052211;28;20138;-68
2023/02/08 05:21:17;;;;;;;37.33;18.25;;;;;;;-2.85;80.24;102808.19;5049887;28;20035;-68
2023/02/08 05:23:42;;;;;;;36.15;18.60;;;;;;;-2.96;80.69;102789.75;5048485;28;20029;-67
2023/02/08 05:26:10;;;;;;;38.45;18.30;;;;;;;-2.97;80.54;102806.38;5047151;28;20388;-68
2023/02/08 05:28:36;;;;;;;37.90;18.27;;;;;;;-3.04;80.64;102803.69;5035455;28;20428;-69
2023/02/08 05:31:19;;;;;;;40.53;18.10;;;;;;;-3.13;81.05;102812.38;5038348;28;20043;-68
2023/02/08 05:33:44;;;;;;;36.05;17.70;;;;;;;-3.21;80.73;102816.69;5052415;28;20237;-69
2023/02/08 05:36:09;;;;;;;39.10;18.30;;;;;;;-3.27;80.81;102808.78;5051285;28;20029;-68
2023/02/08 05:38:35;;;;;;;43.22;19.55;;;;;;;-3.40;81.10;102800.78;5057043;28;20400;-69
2023/02/08 05:41:01;;;;;;;40.85;18.77;;;;;;;-3.38;81.45;102814.78;5046189;28;20406;-69
2023/02/08 05:43:26;;;;;;;41.60;19.77;;;;;;;-3.51;82.09;102798.06;5045032;28;20480;-69
2023/02/08 05:45:51;;;;;;;34.85;18.02;;;;;;;-3.47;82.14;102815.59;5048109;28;20043;-69
2023/02/08 05:48:17;;;;;;;46.75;20.70;;;;;;;-3.55;81.87;102812.00;5043704;28;20357;-69
2023/02/08 05:50:43;;;;;;;43.63;20.20;;;;;;;-3.58;82.79;102816.38;5037645;28;20147;-67
2023/02/08 05:53:09;;;;;;;37.83;18.50;;;;;;;-3.63;82.88;102813.69;5042414;28;20037;-67
2023/02/08 05:55:34;;;;;;;41.05;20.08;;;;;;;-3.68;82.52;102814.53;5047274;28;20025;-68
2023/02/08 05:58:00;;;;;;;37.42;17.10;;;;;;;-3.73;82.97;102811.84;5043596;28;20079;-68
2023/02/08 06:00:25;;;;;;;41.75;19.08;;;;;;;-3.78;83.45;102810.91;5041754;28;20384;-67
2023/02/08 06:02:51;;;;;;;40.28;19.13;;;;;;;-3.81;83.00;102818.75;5045380;28;20025;-69
2023/02/08 06:05:17;;;;;;;42.45;17.42;;;;;;;-3.81;83.55;102828.38;5041284;28;20206;-68
2023/02/08 06:07:42;;;;;;;35.35;17.75;;;;;;;-3.95;83.32;102809.88;5041325;28;20060;-69
2023/02/08 06:10:08;;;;;;;49.25;19.38;;;;;;;-3.86;83.10;102819.56;5028637;28;20029;-68
2023/02/08 06:12:34;;;;;;;36.97;17.42;;;;;;;-3.92;83.25;102815.13;5040010;28;20016;-68
2023/02/08 06:14:59;;;;;;;35.22;17.35;;;;;;;-3.96;83.74;102808.13;5033120;28;20108;-68
2023/02/08 06:17:24;;;;;;;40.15;18.73;;;;;;;-3.96;83.84;102808.13;5038150;28;20021;-68
2023/02/08 06:19:50;;;;;;;41.63;17.95;;;;;;;-3.89;83.72;102819.53;5035922;28;20038;-69
2023/02/08 06:22:16;;;;;;;38.08;17.60;;;;;;;-3.87;83.95;102823.06;5044265;28;20119;-69
2023/02/08 06:24:41;;;;;;;38.05;18.83;;;;;;;-3.91;84.59;102821.25;5037630;28;21694;-69
2023/02/08 06:27:07;;;;;;;45.88;20.08;;;;;;;-3.93;84.81;102834.38;5039665;28;20027;-69
2023/02/08 06:29:32;;;;;;;49.33;20.27;;;;;;;-3.86;85.13;102840.53;5035911;28;20021;-67
2023/02/08 06:31:57;;;;;;;39.70;19.40;;;;;;;-3.80;85.83;102854.59;5041572;28;20044;-67
2023/02/08 06:34:23;;;;;;;43.75;18.15;;;;;;;-3.75;86.86;102845.03;5043066;28;20045;-69
2023/02/08 06:36:48;;;;;;;42.03;19.75;;;;;;;-3.59;87.54;102852.19;5045346;28;20028;-69
2023/02/08 06:39:14;;;;;;;42.75;19.27;;;;;;;-3.47;88.40;102857.56;5044130;28;20042;-68
2023/02/08 06:41:39;;;;;;;43.90;18.63;;;;;;;-3.35;89.59;102857.66;5036679;28;20049;-68
2023/02/08 06:44:05;;;;;;;42.75;18.85;;;;;;;-3.24;89.92;102861.28;5039568;28;20025;-68
2023/02/08 06:46:30;;;;;;;42.53;19.25;;;;;;;-3.10;90.54;102864.00;5045468;28;20452;-68
2023/02/08 06:48:57;;;;;;;45.97;19.30;;;;;;;-3.00;90.92;102863.25;5048574;28;20552;-68
2023/02/08 06:51:23;;;;;;;41.17;19.15;;;;;;;-2.94;91.41;102845.78;5049281;28;20094;-68
2023/02/08 06:53:49;;;;;;;45.55;20.75;;;;;;;-2.80;91.27;102857.25;5043148;28;20028;-68
2023/02/08 06:56:14;;;;;;;44.30;20.65;;;;;;;-2.73;91.23;102856.44;5045243;28;20037;-68
2023/02/08 06:58:40;;;;;;;46.10;21.80;;;;;;;-2.60;91.59;102860.00;5049023;28;20032;-68
2023/02/08 07:01:05;;;;;;;40.63;20.17;;;;;;;-2.51;91.44;102858.31;5037692;28;20083;-68
2023/02/08 07:03:31;;;;;;;44.45;21.08;;;;;;;-2.56;91.96;102841.66;5038594;28;20034;-68
2023/02/08 07:05:56;;;;;;;41.97;20.33;;;;;;;-2.34;91.74;102868.94;5032144;28;20037;-68
2023/02/08 07:08:22;;;;;;;47.92;22.05;;;;;;;-2.33;91.83;102861.94;5035576;28;20554;-68
2023/02/08 07:10:47;;;;;;;42.63;21.98;;;;;;;-2.20;92.09;102875.13;5045948;28;20055;-68
2023/02/08 07:13:13;;;;;;;39.10;21.10;;;;;;;-2.12;92.24;102877.78;5051654;28;20064;-68
2023/02/08 07:15:38;;;;;;;42.95;20.52;;;;;;;-2.03;91.65;102881.34;5049236;28;20492;-68
2023/02/08 07:18:04;;;;;;;50.58;22.15;;;;;;;-1.95;91.50;102881.38;5051374;28;20056;-68
2023/02/08 07:20:29;;;;;;;42.33;20.92;;;;;;;-1.85;91.38;102891.03;5050608;28;20103;-67
2023/02/08 07:22:55;;;;;;;44.60;22.20;;;;;;;-1.79;91.29;102888.44;5053015;28;20031;-67
2023/02/08 07:25:20;;;;;;;44.08;21.95;;;;;;;-1.80;91.22;102877.06;5047966;28;20032;-68
2023/02/08 07:27:46;;;;;;;48.22;22.40;;;;;;;-1.68;91.56;102887.59;5035657;28;20032;-66
2023/02/08 07:30:12;;;;;;;39.03;19.65;;;;;;;-1.58;90.99;102893.78;5045912;28;20040;-67
2023/02/08 07:32:37;;;;;;;38.65;19.38;;;;;;;-1.46;90.67;102893.78;5050177;28;20029;-67
2023/02/08 07:35:02;;;;;;;40.10;19.27;;;;;;;-1.39;90.57;102895.59;5042742;28;20039;-66
2023/02/08 07:37:28;;;;;;;39.72;19.15;;;;;;;-1.34;90.64;102891.19;5035338;28;20028;-67
2023/02/08 07:39:54;;;;;;;44.33;20.52;;;;;;;-1.26;90.53;102903.50;5052558;28;20510;-67
2023/02/08 07:42:19;;;;;;;43.92;20.20;;;;;;;-1.25;90.45;102897.38;5043375;28;20108;-68
2023/02/08 07:44:45;;;;;;;40.65;19.77;;;;;;;-1.17;90.58;102897.34;5050372;28;20064;-68
2023/02/08 07:47:10;;;;;;;38.67;19.17;;;;;;;-1.02;89.99;102898.28;5047940;28;20024;-68
2023/02/08 07:49:36;;;;;;;39.95;21.35;;;;;;;-1.01;90.26;102888.59;5050010;28;20126;-68
2023/02/08 07:52:01;;;;;;;39.58;19.80;;;;;;;-0.90;90.17;102906.16;5050534;28;20540;-68
2023/02/08 07:54:28;;;;;;;43.15;20.65;;;;;;;-0.85;90.28;102893.88;5043847;28;20029;-67
2023/02/08 07:56:53;;;;;;;38.83;20.52;;;;;;;-0.71;89.73;102896.50;5037326;28;20468;-68
2023/02/08 07:59:19;;;;;;;40.67;19.90;;;;;;;-0.62;89.00;102907.03;5048285;28;20029;-68
2023/02/08 08:01:44;;;;;;;41.58;21.38;;;;;;;-0.59;89.28;102899.13;5043042;28;20155;-68
2023/02/08 08:04:10;;;;;;;44.92;20.55;;;;;;;-0.52;89.07;102906.13;5047836;28;20464;-68
2023/02/08 08:06:35;;;;;;;40.85;21.17;;;;;;;-0.47;88.94;102899.09;5051465;28;20144;-68
2023/02/08 08:09:01;;;;;;;39.50;19.60;;;;;;;-0.42;88.38;102892.09;5048781;28;20037;-68
2023/02/08 08:11:27;;;;;;;45.03;22.45;;;;;;;-0.31;87.70;102901.72;5047474;28;20082;-69
2023/02/08 08:13:52;;;;;;;41.60;22.48;;;;;;;-0.25;87.04;102898.19;5044677;28;20557;-68
2023/02/08 08:16:18;;;;;;;43.25;20.88;;;;;;;-0.35;87.09;102873.59;5043509;28;20028;-68
2023/02/08 08:18:44;;;;;;;40.58;20.65;;;;;;;-0.20;86.91;102884.09;5047307;28;20043;-67
2023/02/08 08:21:10;;;;;;;44.30;21.25;;;;;;;-0.06;86.88;102907.81;5046912;28;20025;-68
2023/02/08 08:23:35;;;;;;;40.70;21.45;;;;;;;-0.01;86.19;102906.91;5047332;28;20028;-67
2023/02/08 08:26:28;;;;;;;44.72;21.88;;;;;;;-0.02;86.21;102909.53;5048816;28;20086;-67
2023/02/08 08:28:54;;;;;;;47.38;23.23;;;;;;;0.05;86.27;102913.91;5031659;28;20041;-69
2023/02/08 08:31:21;;;;;;;48.13;22.88;;;;;;;0.07;85.78;102924.47;5038875;28;20018;-68
2023/02/08 08:33:47;;;;;;;44.75;22.05;;;;;;;0.06;85.37;102901.59;5050526;28;20055;-69
2023/02/08 08:36:13;;;;;;;45.03;22.98;;;;;;;0.15;85.65;102918.28;5050916;28;20234;-68
2023/02/08 08:38:39;;;;;;;51.05;23.40;;;;;;;0.17;85.95;102916.50;5051300;28;20044;-68
2023/02/08 08:41:10;;;;;;;44.03;23.67;;;;;;;0.21;85.08;102923.53;5051978;28;20025;-68
2023/02/08 08:43:36;;;;;;;47.65;22.90;;;;;;;0.25;84.57;102924.41;5049380;28;20029;-68
2023/02/08 08:46:01;;;;;;;43.47;20.65;;;;;;;0.35;83.48;102926.97;5051927;28;20021;-68
2023/02/08 08:48:26;;;;;;;48.67;22.45;;;;;;;0.42;83.28;102933.13;5049983;28;20036;-67
2023/02/08 08:50:53;;;;;;;47.05;22.58;;;;;;;0.45;83.24;102933.97;5049543;28;20064;-68
2023/02/08 08:53:20;;;;;;;42.80;21.98;;;;;;;0.50;83.36;102926.03;5053438;28;20036;-68
2023/02/08 08:55:46;;;;;;;37.92;21.33;;;;;;;0.55;82.56;102935.66;5052990;28;20024;-68
2023/02/08 08:58:12;;;;;;;44.28;22.20;;;;;;;0.72;81.31;102936.47;5048322;28;20029;-69
2023/02/08 09:00:37;;;;;;;43.60;22.52;;;;;;;0.78;81.02;102939.09;5046771;28;20148;-68
2023/02/08 09:03:03;;;;;;;40.05;21.30;;;;;;;0.78;80.83;102932.91;5048586;28;20024;-68
2023/02/08 09:05:28;;;;;;;39.97;21.50;;;;;;;0.78;80.05;102922.34;5047591;28;20047;-68
2023/02/08 09:07:54;;;;;;;40.50;21.27;;;;;;;0.97;79.78;102960.97;5053152;28;20037;-67
2023/02/08 09:10:19;;;;;;;44.58;21.20;;;;;;;1.02;78.94;102954.78;5050578;28;20041;-68
2023/02/08 09:12:45;;;;;;;44.00;21.90;;;;;;;0.99;78.99;102952.16;5037652;28;20033;-68
2023/02/08 09:15:10;;;;;;;42.45;21.30;;;;;;;1.12;78.42;102961.75;5048357;28;20041;-68
2023/02/08 09:17:36;;;;;;;43.53;22.65;;;;;;;1.11;78.22;102948.53;5040306;28;20040;-68
2023/02/08 09:20:02;;;;;;;44.60;21.85;;;;;;;1.20;78.07;102953.75;5048601;28;20186;-68
2023/02/08 09:22:28;;;;;;;38.85;21.42;;;;;;;1.28;77.94;102966.03;5047652;28;20039;-68
2023/02/08 09:24:54;;;;;;;41.53;22.77;;;;;;;1.42;76.22;102955.34;5049612;28;20484;-68
2023/02/08 09:27:19;;;;;;;43.67;21.65;;;;;;;1.39;75.95;102956.22;5051490;28;20033;-68
2023/02/08 09:29:44;;;;;;;36.50;19.55;;;;;;;1.43;76.58;102965.03;5048320;28;20040;-68
2023/02/08 09:32:10;;;;;;;40.35;20.20;;;;;;;1.43;75.83;102963.28;5050305;28;20049;-69
2023/02/08 09:34:35;;;;;;;36.65;19.60;;;;;;;1.39;75.66;102950.09;5047993;28;20036;-69
2023/02/08 09:37:01;;;;;;;38.03;19.23;;;;;;;1.53;75.13;102954.38;5049259;28;20039;-68
2023/02/08 09:39:26;;;;;;;37.33;20.65;;;;;;;1.54;74.66;102966.69;5049327;28;20029;-68
2023/02/08 09:42:19;;;;;;;39.83;20.60;;;;;;;1.67;74.11;102976.28;5042641;28;20060;-68
2023/02/08 09:45:17;;;;;;;37.13;20.98;;;;;;;1.70;73.45;102978.00;5047218;28;20040;-67
2023/02/08 09:48:23;;;;;;;41.50;21.33;;;;;;;1.79;73.32;102977.94;5040545;28;20044;-67
2023/02/08 09:51:11;;;;;;;41.00;20.85;;;;;;;1.87;73.27;102974.31;5036555;28;20036;-67
2023/02/08 09:53:46;;;;;;;38.58;20.85;;;;;;;1.90;72.93;102971.63;5050034;28;20120;-67
2023/02/08 09:56:18;;;;;;;39.17;21.10;;;;;;;1.97;72.70;102975.97;5049724;28;20033;-67
2023/02/08 09:58:53;;;;;;;39.03;20.10;;;;;;;2.04;71.73;102969.72;5048528;28;20135;-67
2023/02/08 10:01:32;;;;;;;43.30;22.02;;;;;;;2.15;71.47;102981.09;5049864;28;20029;-68
2023/02/08 10:04:15;;;;;;;40.03;19.95;;;;;;;2.19;70.24;102966.91;5047442;28;20036;-68
2023/02/08 10:06:41;;;;;;;36.63;19.85;;;;;;;2.23;69.42;102950.09;5046475;28;20480;-67
2023/02/08 10:09:13;;;;;;;40.38;20.50;;;;;;;2.44;69.38;102972.78;5038620;28;20091;-69
2023/02/08 10:11:42;;;;;;;38.47;20.88;;;;;;;2.58;68.69;102975.28;5043488;28;20551;-68
2023/02/08 10:14:32;;;;;;;34.75;19.05;;;;;;;2.85;66.93;102965.19;5034764;28;20036;-68
2023/02/08 10:17:09;;;;;;;40.80;21.20;;;;;;;3.03;66.26;102972.84;5044814;28;20036;-67
2023/02/08 10:20:12;;;;;;;38.42;19.75;;;;;;;3.27;65.59;102977.81;5034929;28;20033;-67
2023/02/08 10:22:52;;;;;;;37.17;19.85;;;;;;;3.45;64.17;102974.84;5041122;28;20505;-68
2023/02/08 10:25:35;;;;;;;34.80;19.15;;;;;;;3.56;63.47;102972.03;5044912;28;20029;-68
2023/02/08 10:28:31;;;;;;;34.17;18.83;;;;;;;3.27;63.77;102967.22;5045143;28;20375;-67
2023/02/08 10:31:21;;;;;;;34.30;18.10;;;;;;;3.21;63.87;102972.59;5040713;28;20045;-68
2023/02/08 10:33:49;;;;;;;38.13;17.95;;;;;;;3.07;63.71;102969.28;5040730;28;20037;-68
2023/02/08 10:36:19;;;;;;;35.03;19.63;;;;;;;3.11;63.43;102971.00;5050598;28;20104;-69
2023/02/08 10:38:48;;;;;;;34.88;18.77;;;;;;;3.11;64.00;102959.50;5050883;28;20025;-68
2023/02/08 10:41:30;;;;;;;30.95;18.25;;;;;;;3.16;63.67;102957.66;5050215;28;20104;-69
2023/02/08 10:44:10;;;;;;;31.27;17.63;;;;;;;3.16;63.11;102968.28;5048720;28;20079;-68
2023/02/08 10:46:49;;;;;;;31.58;17.17;;;;;;;3.25;63.29;102958.38;5039856;28;20021;-69
2023/02/08 10:49:22;;;;;;;35.53;17.83;;;;;;;3.28;63.26;102954.78;5031462;28;20073;-68
2023/02/08 10:51:49;;;;;;;32.97;15.80;;;;;;;3.29;61.83;102964.53;5039405;28;20060;-68
2023/02/08 10:54:15;;;;;;;34.45;16.50;;;;;;;3.38;60.90;102967.00;5053367;28;20460;-68
2023/02/08 10:56:51;;;;;;;31.35;16.40;;;;;;;3.43;60.68;102959.88;5034378;28;20121;-68
2023/02/08 10:59:45;;;;;;;34.95;17.80;;;;;;;3.39;61.38;102960.81;5040463;28;20087;-69
2023/02/08 11:02:21;;;;;;;30.13;17.88;;;;;;;3.47;61.73;102973.06;5040640;28;20047;-68
2023/02/08 11:05:05;;;;;;;28.70;16.80;;;;;;;3.49;61.42;102955.34;5048663;28;20043;-69
2023/02/08 11:07:32;;;;;;;31.48;17.20;;;;;;;3.56;60.58;102967.59;5040261;28;20036;-68
2023/02/08 11:10:18;;;;;;;28.33;16.52;;;;;;;3.59;60.03;102948.09;5047692;28;20122;-69
2023/02/08 11:13:05;;;;;;;30.05;17.98;;;;;;;3.69;59.96;102950.56;5045190;28;20033;-69
2023/02/08 11:15:45;;;;;;;28.58;15.90;;;;;;;3.76;59.76;102957.53;5039473;28;20104;-67
2023/02/08 11:18:33;;;;;;;28.77;16.25;;;;;;;3.72;58.86;102962.91;5044989;28;20056;-69
2023/02/08 11:21:23;;;;;;;34.90;18.73;;;;;;;3.67;58.87;102962.09;5037177;28;20021;-69
2023/02/08 11:23:52;;;;;;;34.45;18.38;;;;;;;3.71;59.75;102956.72;5034855;28;20051;-68
2023/02/08 11:26:31;;;;;;;31.08;18.20;;;;;;;3.78;59.01;102960.16;5036459;28;20031;-69